createdAt,value
2023-02-14T00:01:20.649Z,6.93
2023-02-14T00:03:49.557Z,6.65
2023-02-14T00:06:17.161Z,6.35
2023-02-14T00:08:45.026Z,7.05
2023-02-14T00:11:13.329Z,7.07
2023-02-14T00:14:01.984Z,6.95
2023-02-14T00:16:29.383Z,6.35
2023-02-14T00:19:06.014Z,6.28
2023-02-14T00:21:38.908Z,5.95
2023-02-14T00:24:12.125Z,6.82
2023-02-14T00:26:39.348Z,6.60
2023-02-14T00:29:10.682Z,6.38
2023-02-14T00:31:38.873Z,7.63
2023-02-14T00:34:07.238Z,6.25
2023-02-14T00:36:34.462Z,6.38
2023-02-14T00:39:07.041Z,6.53
2023-02-14T00:41:34.624Z,6.82
2023-02-14T00:44:02.505Z,6.30
2023-02-14T00:46:29.977Z,6.03
2023-02-14T00:48:57.533Z,6.68
2023-02-14T00:51:24.916Z,6.75
2023-02-14T00:53:52.672Z,6.78
2023-02-14T00:56:20.743Z,6.65
2023-02-14T00:58:48.401Z,6.45
2023-02-14T01:01:18.760Z,6.63
2023-02-14T01:03:46.410Z,6.38
2023-02-14T01:06:13.354Z,6.60
2023-02-14T01:08:40.668Z,7.03
2023-02-14T01:11:10.295Z,7.60
2023-02-14T01:13:37.463Z,7.18
2023-02-14T01:16:10.540Z,6.90
2023-02-14T01:18:37.529Z,7.07
2023-02-14T01:21:20.389Z,7.30
2023-02-14T01:23:51.078Z,8.25
2023-02-14T01:26:20.443Z,7.18
2023-02-14T01:28:48.036Z,7.30
2023-02-14T01:31:18.957Z,7.30
2023-02-14T01:33:47.640Z,7.72
2023-02-14T01:36:32.855Z,7.20
2023-02-14T01:39:02.724Z,7.53
2023-02-14T01:41:33.497Z,8.57
2023-02-14T01:44:06.577Z,7.53
2023-02-14T01:46:36.268Z,8.15
2023-02-14T01:49:10.778Z,7.55
2023-02-14T01:51:42.873Z,8.63
2023-02-14T01:54:11.459Z,8.93
2023-02-14T01:56:43.668Z,9.75
2023-02-14T01:59:17.380Z,8.15
2023-02-14T02:01:45.986Z,8.45
2023-02-14T02:04:18.465Z,8.95
2023-02-14T02:06:53.585Z,8.18
2023-02-14T02:09:43.319Z,8.30
2023-02-14T02:12:10.720Z,8.38
2023-02-14T02:14:38.032Z,9.50
2023-02-14T02:17:23.522Z,8.65
2023-02-14T02:20:24.531Z,8.40
2023-02-14T02:23:29.470Z,10.25
2023-02-14T02:26:24.027Z,8.95
2023-02-14T02:29:20.581Z,9.50
2023-02-14T02:32:02.419Z,9.38
2023-02-14T02:34:32.575Z,9.23
2023-02-14T02:37:03.833Z,9.57
2023-02-14T02:42:44.938Z,9.07
2023-02-14T02:45:28.783Z,9.10
2023-02-14T02:48:16.640Z,9.85
2023-02-14T02:51:08.108Z,9.38
2023-02-14T02:53:40.968Z,9.02
2023-02-14T02:56:39.991Z,9.43
2023-02-14T02:59:18.476Z,11.05
2023-02-14T03:02:22.637Z,9.88
2023-02-14T03:04:55.822Z,10.50
2023-02-14T03:07:35.034Z,9.38
2023-02-14T03:10:16.384Z,9.43
2023-02-14T03:13:12.032Z,10.35
2023-02-14T03:15:43.544Z,9.23
2023-02-14T03:18:48.298Z,9.32
2023-02-14T03:21:29.206Z,9.48
2023-02-14T03:24:19.655Z,9.15
2023-02-14T03:26:57.926Z,11.00
2023-02-14T03:29:42.993Z,10.00
2023-02-14T03:32:38.632Z,9.65
2023-02-14T03:35:20.824Z,9.45
2023-02-14T03:38:29.440Z,9.13
2023-02-14T03:41:23.924Z,9.27
2023-02-14T03:43:59.043Z,9.57
2023-02-14T03:46:31.182Z,8.93
2023-02-14T03:49:01.861Z,9.02
2023-02-14T03:51:34.403Z,9.75
2023-02-14T03:54:04.954Z,9.35
2023-02-14T03:56:40.910Z,9.27
2023-02-14T03:59:16.665Z,10.02
2023-02-14T04:01:51.915Z,9.15
2023-02-14T04:04:22.565Z,10.35
2023-02-14T04:06:50.143Z,11.32
2023-02-14T04:09:17.062Z,9.35
2023-02-14T04:11:46.363Z,9.60
2023-02-14T04:14:13.558Z,8.95
2023-02-14T04:16:59.582Z,9.43
2023-02-14T04:19:26.803Z,10.02
2023-02-14T04:21:54.077Z,10.23
2023-02-14T04:24:21.092Z,9.18
2023-02-14T04:26:54.308Z,8.70
2023-02-14T04:29:21.504Z,10.25
2023-02-14T04:31:49.145Z,9.85
2023-02-14T04:34:16.115Z,9.48
2023-02-14T04:36:43.293Z,10.40
2023-02-14T04:39:10.358Z,9.30
2023-02-14T04:41:37.575Z,9.95
2023-02-14T04:44:04.562Z,11.10
2023-02-14T04:46:31.843Z,10.32
2023-02-14T04:48:59.349Z,11.80
2023-02-14T04:51:27.632Z,10.90
2023-02-14T04:53:54.682Z,10.18
2023-02-14T04:56:21.950Z,10.32
2023-02-14T04:58:48.882Z,10.20
2023-02-14T05:01:16.188Z,10.18
2023-02-14T05:03:43.083Z,10.73
2023-02-14T05:06:10.413Z,10.13
2023-02-14T05:08:37.430Z,10.32
2023-02-14T05:11:05.160Z,10.57
2023-02-14T05:13:32.350Z,10.68
2023-02-14T05:15:59.602Z,10.05
2023-02-14T05:18:27.294Z,10.60
2023-02-14T05:20:54.804Z,11.52
2023-02-14T05:23:22.339Z,10.43
2023-02-14T05:25:51.134Z,10.70
2023-02-14T05:28:19.620Z,10.80
2023-02-14T05:30:47.306Z,10.02
2023-02-14T05:33:14.333Z,11.00
2023-02-14T05:35:41.601Z,10.82
2023-02-14T05:38:08.587Z,9.80
2023-02-14T05:40:35.858Z,10.18
2023-02-14T05:43:02.846Z,10.48
2023-02-14T05:45:30.219Z,10.95
2023-02-14T05:47:57.297Z,10.65
2023-02-14T05:50:24.587Z,9.63
2023-02-14T05:52:54.360Z,11.18
2023-02-14T05:55:22.051Z,11.82
2023-02-14T05:57:49.046Z,11.18
2023-02-14T06:00:16.709Z,10.23
2023-02-14T06:02:43.913Z,10.50
2023-02-14T06:05:11.628Z,10.70
2023-02-14T06:07:38.878Z,11.05
2023-02-14T06:10:09.884Z,10.75
2023-02-14T06:12:36.887Z,10.23
2023-02-14T06:15:04.562Z,11.35
2023-02-14T06:17:31.479Z,10.95
2023-02-14T06:19:58.908Z,10.95
2023-02-14T06:22:26.084Z,10.65
2023-02-14T06:24:53.422Z,11.32
2023-02-14T06:27:20.404Z,10.55
2023-02-14T06:29:47.751Z,11.23
2023-02-14T06:32:14.971Z,11.05
2023-02-14T06:34:42.778Z,11.25
2023-02-14T06:37:10.058Z,11.30
2023-02-14T06:39:37.429Z,10.45
2023-02-14T06:42:04.443Z,11.65
2023-02-14T06:44:31.783Z,11.32
2023-02-14T06:46:58.798Z,10.80
2023-02-14T06:49:26.228Z,10.63
2023-02-14T06:51:53.212Z,11.55
2023-02-14T06:54:20.374Z,12.10
2023-02-14T06:56:47.339Z,11.30
2023-02-14T06:59:14.623Z,11.10
2023-02-14T07:01:41.629Z,11.50
2023-02-14T07:04:09.378Z,11.38
2023-02-14T07:06:37.578Z,10.85
2023-02-14T07:09:05.749Z,10.43
2023-02-14T07:11:32.894Z,10.25
2023-02-14T07:14:00.104Z,11.90
2023-02-14T07:16:27.035Z,10.30
2023-02-14T07:18:54.297Z,11.80
2023-02-14T07:21:21.277Z,9.85
2023-02-14T07:23:50.116Z,11.43
2023-02-14T07:26:18.333Z,10.77
2023-02-14T07:28:48.820Z,10.27
2023-02-14T07:31:17.107Z,10.27
2023-02-14T07:33:44.444Z,11.55
2023-02-14T07:36:11.479Z,10.80
2023-02-14T07:38:38.812Z,12.25
2023-02-14T07:41:05.812Z,12.18
2023-02-14T07:43:34.498Z,11.52
2023-02-14T07:46:02.857Z,11.55
2023-02-14T07:48:32.504Z,10.13
2023-02-14T07:51:01.426Z,11.33
2023-02-14T07:53:29.100Z,10.48
2023-02-14T07:55:57.034Z,9.25
2023-02-14T07:58:24.445Z,11.18
2023-02-14T08:00:51.551Z,10.85
2023-02-14T08:03:18.933Z,11.35
2023-02-14T08:05:57.192Z,10.43
2023-02-14T08:08:26.894Z,11.77
2023-02-14T08:10:53.885Z,11.00
2023-02-14T08:13:21.724Z,10.68
2023-02-14T08:16:07.586Z,10.93
2023-02-14T08:18:38.575Z,9.60
2023-02-14T08:21:08.578Z,10.75
2023-02-14T08:23:36.488Z,10.55
2023-02-14T08:26:03.955Z,10.23
2023-02-14T08:28:33.172Z,12.23
2023-02-14T08:31:01.624Z,11.27
2023-02-14T08:33:29.266Z,11.63
2023-02-14T08:35:56.431Z,12.38
2023-02-14T08:38:24.627Z,10.73
2023-02-14T08:40:51.871Z,12.38
2023-02-14T08:43:19.265Z,11.48
2023-02-14T08:45:48.491Z,10.95
2023-02-14T08:48:15.802Z,10.70
2023-02-14T08:50:42.972Z,11.80
2023-02-14T08:53:12.659Z,11.35
2023-02-14T08:55:40.601Z,10.23
2023-02-14T08:58:42.037Z,11.45
2023-02-14T09:01:15.158Z,11.13
2023-02-14T09:03:43.330Z,11.10
2023-02-14T09:06:14.644Z,12.75
2023-02-14T09:11:19.646Z,11.35
2023-02-14T09:13:48.284Z,8.98
2023-02-14T09:16:17.637Z,12.30
2023-02-14T09:18:46.221Z,11.10
2023-02-14T09:21:17.595Z,10.20
2023-02-14T09:28:05.504Z,10.70
2023-02-14T09:38:46.630Z,10.43
2023-02-14T09:42:53.878Z,10.90
2023-02-14T09:45:27.310Z,10.15
2023-02-14T09:48:01.057Z,10.23
2023-02-14T09:50:47.483Z,10.63
2023-02-14T09:53:27.452Z,11.57
2023-02-14T09:56:20.703Z,9.82
2023-02-14T09:58:54.562Z,10.00
2023-02-14T10:01:34.480Z,11.27
2023-02-14T10:04:29.666Z,10.93
2023-02-14T10:07:24.849Z,10.35
2023-02-14T10:10:22.761Z,11.85
2023-02-14T10:12:56.439Z,10.48
2023-02-14T10:15:38.008Z,11.00
2023-02-14T10:18:15.106Z,10.18
2023-02-14T10:20:47.315Z,11.27
2023-02-14T10:23:21.264Z,11.85
2023-02-14T10:26:04.447Z,11.65
2023-02-14T10:28:35.400Z,11.05
2023-02-14T10:31:12.917Z,12.13
2023-02-14T10:33:45.643Z,11.25
2023-02-14T10:36:27.553Z,11.05
2023-02-14T10:39:09.165Z,11.30
2023-02-14T10:42:03.763Z,9.52
2023-02-14T10:44:50.474Z,11.32
2023-02-14T10:47:33.266Z,11.35
2023-02-14T10:50:44.719Z,11.35
2023-02-14T10:53:13.111Z,9.57
2023-02-14T10:55:56.024Z,11.18
2023-02-14T10:58:27.967Z,10.38
2023-02-14T11:01:15.841Z,10.75
2023-02-14T11:04:03.894Z,10.13
2023-02-14T11:06:31.899Z,9.77
2023-02-14T11:08:59.195Z,10.30
2023-02-14T11:11:43.662Z,10.55
2023-02-14T11:14:27.590Z,10.73
2023-02-14T11:16:56.914Z,11.00
2023-02-14T11:19:26.120Z,11.25
2023-02-14T11:21:56.669Z,10.25
2023-02-14T11:24:33.733Z,10.27
2023-02-14T11:27:14.840Z,10.57
2023-02-14T11:29:42.244Z,10.75
2023-02-14T11:32:16.456Z,10.77
2023-02-14T11:34:54.937Z,10.13
2023-02-14T11:37:26.771Z,9.60
2023-02-14T11:39:57.593Z,10.18
2023-02-14T11:42:37.586Z,9.88
2023-02-14T11:45:06.918Z,10.00
2023-02-14T11:47:41.711Z,10.65
2023-02-14T11:50:24.891Z,9.25
2023-02-14T11:52:57.290Z,10.63
2023-02-14T11:55:28.423Z,9.15
2023-02-14T11:57:57.988Z,10.55
2023-02-14T12:00:27.421Z,9.73
2023-02-14T12:02:56.455Z,9.80
2023-02-14T12:05:49.460Z,9.95
2023-02-14T12:08:25.264Z,10.38
2023-02-14T12:11:18.203Z,10.30
2023-02-14T12:14:21.383Z,10.48
2023-02-14T12:17:14.870Z,10.23
2023-02-14T12:20:14.457Z,10.63
2023-02-14T12:22:50.392Z,9.90
2023-02-14T12:25:22.887Z,10.30
2023-02-14T12:28:07.983Z,10.30
2023-02-14T12:30:39.650Z,9.93
2023-02-14T12:33:22.995Z,10.65
2023-02-14T12:36:09.425Z,10.52
2023-02-14T12:39:08.641Z,12.38
2023-02-14T12:41:52.796Z,10.27
2023-02-14T12:44:57.705Z,11.65
2023-02-14T12:47:54.873Z,10.15
2023-02-14T12:50:30.447Z,10.65
2023-02-14T12:53:14.212Z,11.13
2023-02-14T12:55:52.886Z,10.18
2023-02-14T12:58:39.359Z,9.93
2023-02-14T13:01:28.421Z,10.05
2023-02-14T13:04:27.207Z,10.43
2023-02-14T13:07:28.136Z,9.60
2023-02-14T13:10:03.290Z,10.35
2023-02-14T13:13:02.503Z,9.85
2023-02-14T13:16:07.882Z,10.77
2023-02-14T13:18:59.638Z,10.75
2023-02-14T13:21:31.901Z,10.48
2023-02-14T13:24:15.668Z,10.35
2023-02-14T13:26:49.002Z,11.15
2023-02-14T13:29:26.502Z,11.00
2023-02-14T13:32:01.779Z,11.23
2023-02-14T13:34:42.001Z,10.77
2023-02-14T13:37:14.755Z,11.60
2023-02-14T13:40:04.124Z,11.15
2023-02-14T13:42:47.660Z,10.20
2023-02-14T13:45:34.930Z,11.23
2023-02-14T13:48:16.010Z,10.10
2023-02-14T13:50:56.373Z,11.98
2023-02-14T13:53:47.945Z,11.15
2023-02-14T13:56:17.636Z,10.37
2023-02-14T13:58:54.274Z,12.10
2023-02-14T14:01:42.104Z,10.40
2023-02-14T14:04:30.490Z,11.07
2023-02-14T14:07:00.212Z,9.95
2023-02-14T14:09:54.744Z,12.02
2023-02-14T14:12:43.128Z,11.65
2023-02-14T14:15:15.250Z,11.80
2023-02-14T14:17:47.299Z,12.18
2023-02-14T14:20:20.915Z,11.88
2023-02-14T14:22:50.586Z,11.57
2023-02-14T14:25:39.886Z,11.90
2023-02-14T14:28:21.261Z,11.57
2023-02-14T14:33:28.679Z,11.23
2023-02-14T14:36:10.669Z,11.88
2023-02-14T14:38:50.816Z,11.43
2023-02-14T14:41:18.988Z,12.13
2023-02-14T14:43:47.593Z,11.98
2023-02-14T14:46:16.353Z,13.52
2023-02-14T14:48:50.187Z,12.27
2023-02-14T14:51:30.577Z,13.88
2023-02-14T14:54:07.754Z,14.88
2023-02-14T14:56:45.289Z,15.05
2023-02-14T14:59:28.031Z,16.45
2023-02-14T15:01:56.345Z,16.92
2023-02-14T15:04:35.461Z,16.27
2023-02-14T15:07:31.248Z,17.58
2023-02-14T15:09:58.790Z,17.63
2023-02-14T15:12:45.787Z,18.13
2023-02-14T15:15:16.879Z,16.45
2023-02-14T15:20:19.006Z,17.65
2023-02-14T15:22:49.790Z,18.92
2023-02-14T15:25:29.268Z,17.80
2023-02-14T15:27:57.270Z,17.35
2023-02-14T15:30:38.697Z,19.77
2023-02-14T15:33:09.947Z,19.35
2023-02-14T15:35:42.501Z,18.67
2023-02-14T15:38:12.860Z,19.85
2023-02-14T15:40:42.893Z,17.40
2023-02-14T15:43:16.959Z,18.77
2023-02-14T15:45:51.983Z,18.77
2023-02-14T15:48:28.358Z,18.45
2023-02-14T15:50:59.181Z,19.52
2023-02-14T15:53:50.474Z,19.38
2023-02-14T15:56:25.178Z,19.27
2023-02-14T15:59:20.717Z,19.52
2023-02-14T16:02:24.406Z,19.25
2023-02-14T16:04:52.067Z,18.80
2023-02-14T16:07:29.752Z,20.30
2023-02-14T16:10:24.212Z,20.95
2023-02-14T16:13:09.291Z,19.90
2023-02-14T16:15:38.851Z,20.45
2023-02-14T16:18:18.899Z,20.48
2023-02-14T16:20:51.446Z,20.60
2023-02-14T16:23:25.966Z,20.38
2023-02-14T16:25:54.417Z,20.17
2023-02-14T16:28:22.358Z,19.98
2023-02-14T16:30:55.710Z,20.13
2023-02-14T16:33:29.097Z,19.00
2023-02-14T16:36:22.261Z,19.70
2023-02-14T16:38:50.763Z,19.38
2023-02-14T16:41:21.482Z,19.92
2023-02-14T16:43:49.130Z,19.80
2023-02-14T16:46:22.252Z,20.75
2023-02-14T16:48:53.105Z,19.15
2023-02-14T16:51:23.667Z,20.60
2023-02-14T16:53:51.233Z,21.25
2023-02-14T16:56:44.569Z,21.65
2023-02-14T16:59:13.010Z,22.15
2023-02-14T17:01:41.476Z,19.95
2023-02-14T17:04:09.645Z,22.02
2023-02-14T17:06:41.916Z,21.83
2023-02-14T17:11:47.108Z,21.30
2023-02-14T17:14:21.065Z,21.98
2023-02-14T17:16:52.843Z,22.17
2023-02-14T17:19:20.548Z,22.63
2023-02-14T17:21:50.280Z,21.95
2023-02-14T17:24:19.660Z,21.67
2023-02-14T17:26:49.570Z,21.60
2023-02-14T17:29:17.966Z,21.38
2023-02-14T17:31:46.328Z,22.23
2023-02-14T17:34:13.878Z,22.58
2023-02-14T17:36:41.763Z,22.55
2023-02-14T17:39:09.545Z,21.38
2023-02-14T17:41:38.104Z,21.48
2023-02-14T17:44:08.229Z,23.63
2023-02-14T17:46:35.890Z,22.33
2023-02-14T17:49:04.151Z,22.40
2023-02-14T17:51:31.753Z,21.52
2023-02-14T17:54:01.300Z,22.00
2023-02-14T17:56:29.434Z,20.75
2023-02-14T17:58:56.725Z,22.10
2023-02-14T18:01:27.240Z,20.80
2023-02-14T18:03:56.294Z,22.15
2023-02-14T18:06:27.008Z,22.73
2023-02-14T18:08:58.357Z,22.88
2023-02-14T18:11:28.275Z,22.95
2023-02-14T18:13:57.199Z,23.05
2023-02-14T18:16:26.292Z,22.73
2023-02-14T18:18:55.142Z,22.67
2023-02-14T18:21:24.717Z,24.38
2023-02-14T18:23:53.069Z,25.65
2023-02-14T18:26:20.863Z,25.17
2023-02-14T18:28:48.996Z,23.48
2023-02-14T18:31:19.040Z,24.85
2023-02-14T18:33:48.354Z,24.48
2023-02-14T18:36:19.258Z,24.73
2023-02-14T18:38:49.258Z,24.25
2023-02-14T18:41:19.744Z,24.58
2023-02-14T18:43:49.311Z,23.85
2023-02-14T18:46:23.652Z,25.52
2023-02-14T18:48:51.628Z,25.42
2023-02-14T18:51:25.992Z,27.17
2023-02-14T18:53:54.922Z,23.98
2023-02-14T18:56:27.225Z,27.08
2023-02-14T18:59:01.426Z,25.40
2023-02-14T19:01:33.011Z,24.95
2023-02-14T19:04:01.851Z,27.10
2023-02-14T19:06:32.119Z,24.80
2023-02-14T19:09:03.124Z,25.25
2023-02-14T19:11:33.389Z,25.60
2023-02-14T19:14:02.429Z,25.88
2023-02-14T19:16:34.053Z,26.85
2023-02-14T19:19:02.910Z,25.85
2023-02-14T19:21:37.714Z,26.27
2023-02-14T19:24:07.492Z,24.42
2023-02-14T19:26:40.912Z,26.08
2023-02-14T19:29:12.342Z,28.15
2023-02-14T19:34:19.885Z,25.58
2023-02-14T19:36:49.077Z,25.58
2023-02-14T19:39:17.417Z,26.55
2023-02-14T19:41:46.303Z,25.40
2023-02-14T19:44:15.716Z,25.40
2023-02-14T19:46:45.296Z,27.85
2023-02-14T19:49:15.027Z,25.08
2023-02-14T19:51:43.935Z,25.50
2023-02-14T19:54:12.648Z,24.75
2023-02-14T19:56:44.756Z,26.63
2023-02-14T19:59:20.223Z,25.70
2023-02-14T20:01:51.835Z,27.23
2023-02-14T20:04:29.291Z,26.08
2023-02-14T20:06:57.533Z,27.77
2023-02-14T20:09:25.713Z,26.38
2023-02-14T20:11:58.476Z,26.02
2023-02-14T20:14:43.656Z,24.60
2023-02-14T20:19:45.325Z,22.65
2023-02-14T20:22:12.733Z,24.70
2023-02-14T20:24:40.024Z,25.75
2023-02-14T20:27:08.270Z,25.77
2023-02-14T20:29:38.943Z,25.77
2023-02-14T20:32:07.537Z,23.85
2023-02-14T20:34:34.541Z,24.88
2023-02-14T20:37:02.732Z,25.77
2023-02-14T20:39:34.640Z,26.52
2023-02-14T20:42:02.038Z,28.10
2023-02-14T20:44:29.970Z,28.58
2023-02-14T20:46:57.687Z,25.50
2023-02-14T20:49:26.344Z,26.00
2023-02-14T20:51:53.994Z,26.27
2023-02-14T20:54:24.090Z,26.95
2023-02-14T20:56:52.910Z,27.10
2023-02-14T20:59:27.527Z,29.33
2023-02-14T21:01:56.349Z,30.00
2023-02-14T21:04:23.729Z,30.77
2023-02-14T21:06:51.408Z,31.38
2023-02-14T21:09:20.891Z,31.33
2023-02-14T21:11:48.558Z,32.63
2023-02-14T21:14:17.451Z,31.65
2023-02-14T21:16:45.133Z,31.67
2023-02-14T21:19:13.306Z,31.52
2023-02-14T21:21:42.044Z,31.27
2023-02-14T21:24:12.453Z,31.13
2023-02-14T21:26:42.115Z,31.52
2023-02-14T21:29:10.769Z,32.10
2023-02-14T21:31:40.104Z,32.25
2023-02-14T21:34:07.570Z,31.88
2023-02-14T21:36:36.827Z,32.97
2023-02-14T21:39:06.541Z,31.77
2023-02-14T21:41:35.257Z,32.78
2023-02-14T21:44:04.535Z,32.65
2023-02-14T21:46:37.185Z,32.35
2023-02-14T21:49:24.857Z,31.55
2023-02-14T21:51:53.367Z,33.22
2023-02-14T21:54:21.459Z,31.58
2023-02-14T21:56:49.965Z,32.30
2023-02-14T21:59:17.765Z,34.20
2023-02-14T22:01:45.394Z,32.15
2023-02-14T22:04:13.165Z,31.25
2023-02-14T22:06:42.917Z,29.98
2023-02-14T22:09:13.406Z,30.20
2023-02-14T22:11:40.983Z,30.40
2023-02-14T22:14:08.401Z,31.40
2023-02-14T22:16:39.913Z,29.20
2023-02-14T22:19:08.929Z,31.42
2023-02-14T22:21:36.589Z,30.02
2023-02-14T22:24:05.300Z,29.73
2023-02-14T22:26:40.842Z,28.80
2023-02-14T22:29:11.960Z,29.48
2023-02-14T22:31:42.908Z,29.83
2023-02-14T22:34:13.748Z,32.55
2023-02-14T22:36:42.670Z,30.15
2023-02-14T22:39:13.349Z,30.85
2023-02-14T22:41:43.171Z,31.35
2023-02-14T22:44:10.537Z,30.02
2023-02-14T22:46:38.551Z,28.35
2023-02-14T22:49:07.012Z,31.92
2023-02-14T22:51:41.189Z,29.73
2023-02-14T22:54:14.146Z,28.40
2023-02-14T22:56:45.620Z,28.77
2023-02-14T22:59:16.861Z,28.67
2023-02-14T23:04:13.468Z,27.30
2023-02-14T23:06:42.059Z,29.70
2023-02-14T23:09:11.806Z,30.17
2023-02-14T23:11:43.329Z,27.95
2023-02-14T23:14:53.795Z,29.25
2023-02-14T23:17:39.887Z,27.67
2023-02-14T23:20:27.355Z,28.45
2023-02-14T23:22:55.644Z,26.17
2023-02-14T23:25:23.453Z,29.70
2023-02-14T23:27:51.958Z,28.13
2023-02-14T23:30:19.924Z,30.08
2023-02-14T23:32:48.578Z,26.55
2023-02-14T23:35:16.270Z,26.40
2023-02-14T23:37:44.029Z,27.58
2023-02-14T23:40:12.002Z,26.98
2023-02-14T23:42:40.017Z,28.25
2023-02-14T23:45:26.817Z,28.00
2023-02-14T23:47:54.554Z,29.17
2023-02-14T23:50:22.910Z,25.30
2023-02-14T23:52:50.636Z,27.88
2023-02-14T23:55:18.344Z,26.25
2023-02-14T23:57:46.263Z,29.02
